Pensacola, FL (32503)

2:40 AM CST on December 19, 2014 (GMT -0600)
APRSWXNET Pensacola FL US | Change Station
CLOSE
Current Station
Personal Weather Station
Location: Pensacola, FL
Elevation: 85 ft
Nearby Weather Stations

Elev 85 ft 30.45 °N, 87.22 °W | Updated 232 days ago

Rain
Rain
48 °F
Feels Like 48 °F
N
6
Wind Variable Wind from NE
Gusts 9 mph

Today
High -- | Low -- °F
--% Chance of Precip.
Yesterday
High -- | Low -- °F
Precip. -- in
6:40 AM 4:51 PM
Waning Crescent, 9% visible
Pressure 30.14 in
Visibility 10.0 miles
Clouds Mostly Cloudy 3400 ft
Mostly Cloudy 6000 ft
Overcast 9000 ft
Dew Point 41 °F
Humidity 76%
Rainfall 4.00 in
Snow Depth Not available.
UV 0 out of 12
Pollen 3.50 out of 12
Air Quality Not available.
Flu Activity Not available.
METAR KPNS 190753Z AUTO 02006KT 10SM BKN034 BKN060 OVC090 12/06 A3013 RMK AO2 SLP205 T01220056

More Conditions Fewer Conditions

Pressure 30.14 in
Visibility 10.0 miles
Clouds Mostly Cloudy 3400 ft
Mostly Cloudy 6000 ft
Overcast 9000 ft
Dew Point 41 °F
Humidity 76%
Rainfall 4.00 in
Snow Depth Not available.
UV 0 out of 12
Pollen 3.50 out of 12
Air Quality Not available.
Flu Activity Not available.
METAR KPNS 190753Z AUTO 02006KT 10SM BKN034 BKN060 OVC090 12/06 A3013 RMK AO2 SLP205 T01220056

More Conditions Fewer Conditions

10-Day Weather Forecast

Almanac

Astronomy

Dec. 19, 2014 Rise Set
Actual Time
Civil Twilight
Nautical Twilight
Astronomical Twilight
Moon
Length of Visible Light
Length of Day
Tomorrow will be .
, % of the Moon is Illuminated

Today's Extremes

State Highs State Lows

Community

WunderPhotos

Upload Photos

1,778,953 photos uploaded!

WunderBlogs® & News

Nearby

Air Quality

  Air Quality AQ Index Pollutant
Not available.

Snow Depth

Station Depth Elevation

Earthquake Activity

City Distance Mag. Time & Date
Minimum magnitude displayed is 2.5.

Coastal Water Temperatures

Place Temperature

Nearby Weather Stations